createdAt,value
2017-08-01T11:21:34.305Z,3.50
2017-08-01T11:22:34.220Z,3.30
2017-08-01T11:23:34.151Z,3.70
2017-08-01T11:24:34.135Z,3.40
2017-08-01T11:25:33.834Z,3.60
2017-08-01T11:26:33.803Z,3.10
2017-08-01T11:27:33.713Z,3.60
2017-08-01T11:28:33.622Z,3.60
2017-08-01T11:29:33.563Z,3.40
2017-08-01T11:30:33.525Z,3.50
2017-08-01T11:31:33.381Z,3.10
2017-08-01T11:32:33.320Z,3.30
2017-08-01T11:33:33.205Z,3.30
2017-08-01T11:34:33.144Z,3.20
2017-08-01T11:35:33.220Z,3.20
2017-08-01T11:36:32.980Z,3.00
2017-08-01T11:37:33.049Z,3.20
2017-08-01T11:38:32.841Z,4.00
2017-08-01T11:39:32.936Z,4.40
2017-08-01T11:40:33.057Z,4.60
2017-08-01T11:41:32.660Z,4.70
2017-08-01T11:42:32.527Z,4.20
2017-08-01T13:45:26.651Z,3.30
2017-08-01T13:46:26.531Z,3.50
2017-08-01T13:47:26.434Z,2.90
2017-08-01T13:48:26.411Z,3.10
2017-08-01T13:49:26.300Z,2.70
2017-08-01T13:50:26.202Z,2.90
2017-08-01T13:51:26.131Z,3.20
2017-08-01T13:52:26.052Z,3.20
2017-08-01T13:53:25.945Z,3.00
2017-08-01T13:54:25.966Z,3.20
2017-08-01T13:55:25.827Z,3.10
2017-08-01T13:56:25.746Z,3.30
2017-08-01T13:57:25.641Z,3.10
2017-08-01T13:58:25.576Z,3.00
2017-08-01T13:59:25.613Z,3.10
2017-08-01T14:00:25.427Z,3.10
2017-08-01T14:01:25.352Z,3.00
2017-08-01T14:02:25.259Z,2.80
2017-08-01T14:03:25.195Z,2.90
2017-08-01T14:04:25.039Z,3.10
2017-08-01T14:05:25.042Z,3.20
2017-08-01T14:06:24.820Z,2.90
2017-08-01T14:07:24.896Z,3.10
2017-08-01T14:08:24.828Z,3.10
2017-08-01T14:09:24.807Z,3.20
2017-08-01T14:10:24.658Z,3.10
2017-08-01T14:11:24.584Z,3.50
2017-08-01T14:12:24.514Z,3.00
2017-08-01T14:13:24.439Z,3.00
2017-08-01T14:14:24.358Z,3.30
2017-08-01T14:15:24.326Z,3.00
2017-08-01T14:16:24.202Z,3.10
2017-08-01T14:17:24.161Z,3.10
2017-08-01T14:18:24.135Z,3.30
2017-08-01T14:19:23.982Z,3.20
2017-08-01T14:20:23.943Z,2.80
2017-08-01T14:21:23.844Z,3.20
2017-08-01T14:22:23.617Z,3.10
2017-08-01T14:23:23.664Z,3.10
